createdAt,value
2022-09-07T00:00:16.616Z,22.52
2022-09-07T00:02:44.463Z,22.64
2022-09-07T00:05:12.315Z,22.64
2022-09-07T00:07:40.027Z,22.71
2022-09-07T00:10:09.071Z,22.75
2022-09-07T00:12:38.436Z,22.80
2022-09-07T00:15:09.375Z,22.74
2022-09-07T00:17:37.912Z,22.70
2022-09-07T00:20:08.530Z,22.71
2022-09-07T00:22:36.817Z,22.67
2022-09-07T00:25:05.239Z,22.70
2022-09-07T00:27:33.271Z,22.64
2022-09-07T00:30:02.438Z,22.71
2022-09-07T00:32:30.180Z,22.78
2022-09-07T00:35:00.363Z,22.79
2022-09-07T00:37:28.055Z,22.77
2022-09-07T00:39:55.860Z,22.79
2022-09-07T00:42:24.012Z,22.80
2022-09-07T00:45:06.352Z,22.80
2022-09-07T00:47:40.189Z,22.72
2022-09-07T00:50:15.104Z,22.41
2022-09-07T00:52:46.409Z,22.09
2022-09-07T00:55:16.198Z,21.94
2022-09-07T00:57:49.232Z,21.88
2022-09-07T01:00:18.346Z,21.90
2022-09-07T01:02:48.044Z,22.01
2022-09-07T01:05:22.602Z,22.05
2022-09-07T01:07:50.337Z,21.89
2022-09-07T01:10:19.074Z,21.76
2022-09-07T01:12:46.973Z,21.74
2022-09-07T01:15:14.760Z,21.82
2022-09-07T01:17:58.245Z,21.92
2022-09-07T01:20:50.561Z,21.93
2022-09-07T01:23:43.753Z,21.93
2022-09-07T01:26:54.562Z,21.94
2022-09-07T01:29:32.517Z,21.73
2022-09-07T01:32:11.259Z,21.69
2022-09-07T01:34:39.461Z,21.70
2022-09-07T01:37:17.568Z,21.80
2022-09-07T01:39:52.610Z,21.91
2022-09-07T01:42:25.556Z,21.98
2022-09-07T01:44:57.347Z,22.02
2022-09-07T01:47:31.695Z,21.92
2022-09-07T01:50:03.828Z,21.92
2022-09-07T01:52:39.229Z,21.85
2022-09-07T01:55:14.676Z,21.86
2022-09-07T01:57:46.964Z,21.74
2022-09-07T02:00:20.026Z,21.50
2022-09-07T02:02:52.526Z,21.31
2022-09-07T02:05:24.945Z,21.19
2022-09-07T02:07:57.247Z,21.30
2022-09-07T02:10:30.979Z,21.44
2022-09-07T02:13:02.814Z,21.51
2022-09-07T02:15:41.371Z,21.49
2022-09-07T02:18:11.609Z,21.25
2022-09-07T02:20:41.666Z,21.10
2022-09-07T02:23:15.199Z,21.01
2022-09-07T02:25:47.429Z,20.93
2022-09-07T02:28:18.681Z,20.84
2022-09-07T02:30:47.819Z,20.85
2022-09-07T02:33:16.001Z,20.89
2022-09-07T02:35:43.717Z,20.86
2022-09-07T02:38:11.452Z,20.83
2022-09-07T02:40:40.076Z,20.84
2022-09-07T02:43:10.285Z,20.81
2022-09-07T02:45:48.026Z,20.82
2022-09-07T02:48:30.782Z,20.82
2022-09-07T02:51:09.971Z,20.84
2022-09-07T02:54:17.935Z,20.84
2022-09-07T02:56:58.534Z,20.74
2022-09-07T02:59:41.011Z,20.70
2022-09-07T03:02:14.462Z,20.85
2022-09-07T03:04:51.239Z,21.00
2022-09-07T03:07:23.432Z,21.06
2022-09-07T03:09:54.986Z,21.15
2022-09-07T03:12:22.838Z,21.16
2022-09-07T03:14:50.824Z,21.19
2022-09-07T03:17:18.637Z,21.27
2022-09-07T03:19:47.716Z,21.22
2022-09-07T03:22:15.791Z,21.28
2022-09-07T03:24:43.503Z,21.17
2022-09-07T03:27:11.482Z,21.02
2022-09-07T03:29:42.030Z,21.04
2022-09-07T03:32:09.966Z,21.19
2022-09-07T03:34:37.703Z,21.25
2022-09-07T03:37:06.953Z,21.34
2022-09-07T03:39:36.341Z,21.34
2022-09-07T03:42:04.383Z,21.29
2022-09-07T03:44:32.325Z,21.24
2022-09-07T03:47:00.022Z,21.33
2022-09-07T03:49:27.753Z,21.40
2022-09-07T03:51:55.579Z,21.42
2022-09-07T03:54:24.863Z,21.47
2022-09-07T03:56:52.700Z,21.51
2022-09-07T03:59:20.498Z,21.48
2022-09-07T04:01:48.292Z,21.40
2022-09-07T04:04:16.072Z,21.38
2022-09-07T04:06:43.896Z,21.39
2022-09-07T04:09:14.485Z,21.43
2022-09-07T04:11:43.862Z,21.41
2022-09-07T04:14:12.452Z,21.33
2022-09-07T04:16:40.339Z,21.25
2022-09-07T04:19:08.146Z,21.24
2022-09-07T04:21:35.961Z,21.27
2022-09-07T04:24:04.268Z,21.22
2022-09-07T04:26:34.149Z,21.25
2022-09-07T04:29:04.037Z,21.25
2022-09-07T04:31:33.998Z,21.20
2022-09-07T04:34:02.103Z,21.11
2022-09-07T04:36:29.986Z,21.08
2022-09-07T04:38:59.455Z,21.09
2022-09-07T04:41:28.276Z,21.04
2022-09-07T04:43:57.770Z,20.96
2022-09-07T04:46:29.729Z,20.97
2022-09-07T04:48:59.536Z,20.91
2022-09-07T04:51:29.675Z,20.90
2022-09-07T04:53:59.504Z,20.83
2022-09-07T04:56:27.539Z,20.85
2022-09-07T04:58:55.295Z,20.81
2022-09-07T05:01:26.403Z,20.71
2022-09-07T05:03:54.229Z,20.62
2022-09-07T05:06:23.492Z,20.58
2022-09-07T05:08:54.163Z,20.59
2022-09-07T05:11:28.511Z,20.54
2022-09-07T05:13:57.489Z,20.52
2022-09-07T05:16:27.348Z,20.50
2022-09-07T05:18:57.054Z,20.48
2022-09-07T05:21:26.995Z,20.50
2022-09-07T05:23:56.377Z,20.54
2022-09-07T05:26:27.758Z,20.52
2022-09-07T05:31:45.354Z,20.50
2022-09-07T05:36:56.690Z,20.54
2022-09-07T05:39:24.967Z,20.53
2022-09-07T05:41:52.861Z,20.53
2022-09-07T05:47:10.173Z,20.63
2022-09-07T05:49:37.927Z,20.71
2022-09-07T05:52:05.794Z,20.72
2022-09-07T05:54:33.474Z,20.75
2022-09-07T05:57:03.098Z,20.76
2022-09-07T05:59:30.896Z,20.77
2022-09-07T06:01:58.789Z,20.74
2022-09-07T06:04:28.000Z,20.76
2022-09-07T06:07:21.549Z,20.72
2022-09-07T06:12:31.221Z,20.68
2022-09-07T06:15:00.953Z,20.78
2022-09-07T06:17:29.798Z,20.83
2022-09-07T06:20:00.191Z,20.87
2022-09-07T06:22:31.007Z,20.91
2022-09-07T06:24:59.191Z,20.89
2022-09-07T06:27:26.925Z,20.93
2022-09-07T06:29:54.908Z,20.99
2022-09-07T06:35:12.762Z,21.02
2022-09-07T06:37:40.990Z,21.09
2022-09-07T06:40:10.584Z,21.24
2022-09-07T06:42:38.528Z,21.28
2022-09-07T06:45:07.491Z,21.39
2022-09-07T06:47:35.222Z,21.49
2022-09-07T06:50:03.010Z,21.57
2022-09-07T06:55:20.251Z,21.69
2022-09-07T06:57:47.981Z,21.73
2022-09-07T07:00:16.395Z,21.74
2022-09-07T07:02:44.254Z,21.79
2022-09-07T07:05:12.228Z,21.87
2022-09-07T07:07:41.253Z,21.92
2022-09-07T07:10:10.005Z,21.98
2022-09-07T07:15:04.506Z,22.13
2022-09-07T07:17:32.242Z,22.16
2022-09-07T07:19:59.966Z,22.22
2022-09-07T07:22:46.200Z,22.26
2022-09-07T07:25:16.470Z,22.22
2022-09-07T07:27:47.127Z,22.29
2022-09-07T07:30:15.327Z,22.32
2022-09-07T07:32:43.928Z,22.37
2022-09-07T07:35:12.091Z,22.41
2022-09-07T07:37:40.234Z,22.39
2022-09-07T07:42:43.186Z,22.52
2022-09-07T07:47:59.827Z,22.58
2022-09-07T07:50:31.640Z,22.73
2022-09-07T07:55:48.224Z,22.93
2022-09-07T07:58:17.618Z,23.10
2022-09-07T08:01:00.706Z,23.20
2022-09-07T08:03:28.785Z,23.27
2022-09-07T08:05:57.115Z,23.32
2022-09-07T08:08:25.236Z,23.48
2022-09-07T08:10:53.323Z,23.54
2022-09-07T08:13:22.428Z,23.73
2022-09-07T08:15:50.211Z,23.90
2022-09-07T08:18:18.651Z,24.00
2022-09-07T08:20:46.761Z,24.22
2022-09-07T08:23:15.359Z,24.31
2022-09-07T08:25:51.403Z,24.47
2022-09-07T08:28:19.493Z,24.61
2022-09-07T08:30:48.808Z,24.82
2022-09-07T08:33:17.144Z,24.99
2022-09-07T08:35:54.462Z,25.16
2022-09-07T08:38:22.101Z,25.28
2022-09-07T08:40:50.314Z,25.45
2022-09-07T08:43:30.053Z,25.72
2022-09-07T08:46:05.651Z,25.81
2022-09-07T08:48:35.174Z,25.96
2022-09-07T08:51:10.470Z,26.19
2022-09-07T08:53:44.848Z,26.39
2022-09-07T08:56:19.087Z,26.68
2022-09-07T08:58:50.409Z,26.76
2022-09-07T09:01:37.442Z,26.90
2022-09-07T09:04:16.757Z,26.76
2022-09-07T09:06:54.788Z,26.75
2022-09-07T09:09:35.018Z,27.07
2022-09-07T09:12:14.252Z,27.58
2022-09-07T09:14:58.884Z,28.34
2022-09-07T09:17:33.843Z,29.01
2022-09-07T09:20:09.219Z,28.81
2022-09-07T09:22:36.893Z,28.45
2022-09-07T09:25:19.752Z,27.97
2022-09-07T09:27:47.697Z,28.31
2022-09-07T09:30:17.262Z,28.34
2022-09-07T09:32:47.774Z,27.90
2022-09-07T09:35:20.655Z,27.61
2022-09-07T09:37:48.385Z,27.26
2022-09-07T09:40:25.339Z,26.98
2022-09-07T09:43:07.581Z,26.90
2022-09-07T09:48:33.417Z,26.66
2022-09-07T09:54:01.263Z,26.51
2022-09-07T09:56:43.672Z,26.48
2022-09-07T10:05:28.430Z,26.39
2022-09-07T10:07:56.851Z,26.40
2022-09-07T10:10:25.969Z,26.40
2022-09-07T10:12:55.160Z,26.69
2022-09-07T10:15:29.756Z,27.31
2022-09-07T10:17:59.264Z,27.70
2022-09-07T10:20:38.963Z,27.83
2022-09-07T10:23:20.335Z,27.58
2022-09-07T10:25:48.564Z,27.26
2022-09-07T10:28:20.292Z,26.98
2022-09-07T10:31:09.877Z,26.72
2022-09-07T10:36:45.152Z,26.44
2022-09-07T10:39:16.205Z,26.40
2022-09-07T10:41:52.657Z,26.35
2022-09-07T10:44:29.242Z,26.42
2022-09-07T10:47:02.735Z,26.36
2022-09-07T10:49:40.206Z,26.32
2022-09-07T10:52:22.357Z,26.32
2022-09-07T10:54:55.105Z,26.32
2022-09-07T10:57:44.549Z,26.31
2022-09-07T11:00:18.086Z,26.20
2022-09-07T11:06:15.351Z,26.13
2022-09-07T11:09:16.347Z,26.19
2022-09-07T11:12:04.355Z,26.15
2022-09-07T11:14:38.386Z,26.44
2022-09-07T11:17:13.399Z,27.54
2022-09-07T11:19:47.143Z,28.11
2022-09-07T11:22:20.946Z,27.93
2022-09-07T11:27:48.516Z,27.47
2022-09-07T11:30:24.620Z,27.91
2022-09-07T11:33:06.766Z,28.21
2022-09-07T11:35:46.146Z,29.12
2022-09-07T11:38:26.594Z,30.27
2022-09-07T11:41:07.469Z,31.96
2022-09-07T11:43:41.360Z,32.58
2022-09-07T11:46:14.204Z,33.10
2022-09-07T11:48:46.611Z,33.46
2022-09-07T11:51:20.885Z,33.96
2022-09-07T11:53:52.386Z,34.18
2022-09-07T11:56:27.894Z,34.08
2022-09-07T11:59:30.761Z,34.15
2022-09-07T12:02:15.888Z,33.83
2022-09-07T12:04:56.897Z,32.85
2022-09-07T12:07:47.284Z,31.96
2022-09-07T12:10:30.708Z,31.16
2022-09-07T12:13:28.731Z,31.07
2022-09-07T12:16:03.685Z,31.20
2022-09-07T12:18:50.066Z,30.79
2022-09-07T12:21:39.897Z,30.25
2022-09-07T12:24:35.545Z,29.73
2022-09-07T12:27:04.468Z,29.52
2022-09-07T12:29:33.885Z,29.47
2022-09-07T12:34:54.564Z,29.11
2022-09-07T12:37:45.931Z,29.01
2022-09-07T12:40:56.055Z,28.91
2022-09-07T12:43:47.806Z,28.66
2022-09-07T12:46:41.394Z,28.59
2022-09-07T12:49:30.471Z,28.40
2022-09-07T12:52:15.378Z,28.31
2022-09-07T12:55:10.021Z,28.19
2022-09-07T12:57:46.531Z,28.02
2022-09-07T13:00:36.197Z,27.98
2022-09-07T13:03:58.871Z,27.88
2022-09-07T13:09:32.119Z,27.75
2022-09-07T13:12:00.969Z,27.79
2022-09-07T13:14:30.208Z,27.72
2022-09-07T13:17:49.932Z,27.67
2022-09-07T13:20:30.057Z,27.62
2022-09-07T13:23:09.140Z,27.58
2022-09-07T13:25:47.347Z,27.61
2022-09-07T13:28:23.606Z,27.48
2022-09-07T13:31:11.434Z,27.39
2022-09-07T13:33:50.478Z,27.40
2022-09-07T13:36:43.230Z,27.43
2022-09-07T13:39:15.189Z,27.44
2022-09-07T13:41:47.326Z,27.43
2022-09-07T13:44:25.870Z,27.42
2022-09-07T13:47:21.065Z,27.41
2022-09-07T13:50:02.845Z,27.35
2022-09-07T13:52:49.376Z,27.30
2022-09-07T13:55:32.687Z,27.21
2022-09-07T13:58:13.641Z,27.12
2022-09-07T14:00:52.371Z,27.05
2022-09-07T14:03:21.034Z,27.12
2022-09-07T14:06:06.524Z,27.14
2022-09-07T14:08:39.667Z,27.12
2022-09-07T14:11:18.448Z,27.15
2022-09-07T14:13:46.023Z,27.18
2022-09-07T14:16:13.928Z,27.18
2022-09-07T14:18:41.782Z,27.18
2022-09-07T14:21:19.054Z,27.14
2022-09-07T14:23:51.165Z,27.09
2022-09-07T14:26:22.390Z,27.07
2022-09-07T14:28:52.544Z,27.01
2022-09-07T14:31:22.104Z,26.97
2022-09-07T14:33:52.828Z,26.90
2022-09-07T14:36:43.941Z,26.85
2022-09-07T14:39:16.322Z,26.76
2022-09-07T14:41:45.036Z,26.75
2022-09-07T14:44:30.251Z,26.69
2022-09-07T14:47:00.350Z,26.63
2022-09-07T14:49:32.124Z,26.58
2022-09-07T14:52:00.791Z,26.53
2022-09-07T14:54:32.558Z,26.51
2022-09-07T14:57:04.286Z,26.53
2022-09-07T14:59:40.844Z,26.51
2022-09-07T15:02:25.394Z,26.48
2022-09-07T15:05:16.345Z,26.46
2022-09-07T15:07:48.147Z,26.46
2022-09-07T15:10:28.741Z,26.45
2022-09-07T15:12:58.446Z,26.46
2022-09-07T15:15:29.017Z,26.46
2022-09-07T15:18:03.106Z,26.48
2022-09-07T15:20:36.534Z,26.51
2022-09-07T15:23:06.181Z,26.57
2022-09-07T15:25:36.456Z,26.59
2022-09-07T15:28:04.609Z,26.60
2022-09-07T15:30:33.577Z,26.57
2022-09-07T15:33:01.473Z,26.54
2022-09-07T15:35:29.150Z,26.50
2022-09-07T15:38:05.436Z,26.45
2022-09-07T15:41:18.264Z,26.39
2022-09-07T15:43:39.044Z,26.34
2022-09-07T15:46:07.245Z,26.34
2022-09-07T15:48:36.339Z,26.30
2022-09-07T15:52:04.808Z,26.30
2022-09-07T15:57:48.301Z,26.23
2022-09-07T15:59:32.427Z,26.20
2022-09-07T16:02:00.388Z,26.21
2022-09-07T16:04:28.534Z,26.20
2022-09-07T16:06:56.298Z,26.22
2022-09-07T16:09:24.153Z,26.17
2022-09-07T16:11:54.048Z,26.15
2022-09-07T16:14:21.755Z,26.13
2022-09-07T16:19:40.970Z,26.07
2022-09-07T16:22:09.648Z,26.05
2022-09-07T16:24:37.587Z,26.02
2022-09-07T16:27:06.838Z,26.00
2022-09-07T16:29:34.546Z,25.99
2022-09-07T16:34:49.847Z,25.94
2022-09-07T16:37:18.413Z,25.91
2022-09-07T16:39:46.055Z,25.88
2022-09-07T16:42:16.291Z,25.84
2022-09-07T16:44:43.899Z,25.80
2022-09-07T16:47:12.758Z,25.78
2022-09-07T16:49:40.424Z,25.78
2022-09-07T16:52:10.585Z,25.76
2022-09-07T16:54:38.509Z,25.74
2022-09-07T16:57:06.231Z,25.72
2022-09-07T16:59:35.203Z,25.69
2022-09-07T17:02:02.929Z,25.67
2022-09-07T17:04:30.613Z,25.65
2022-09-07T17:06:58.300Z,25.61
2022-09-07T17:09:26.673Z,25.56
2022-09-07T17:11:54.505Z,25.53
2022-09-07T17:14:22.187Z,25.49
2022-09-07T17:16:51.410Z,25.47
2022-09-07T17:19:36.231Z,25.44
2022-09-07T17:22:04.244Z,25.41
2022-09-07T17:24:32.445Z,25.36
2022-09-07T17:27:00.247Z,25.35
2022-09-07T17:29:30.373Z,25.33
2022-09-07T17:34:47.303Z,25.27
2022-09-07T17:37:14.945Z,25.24
2022-09-07T17:39:42.746Z,25.20
2022-09-07T17:42:10.542Z,25.18
2022-09-07T17:44:38.606Z,25.16
2022-09-07T17:47:07.975Z,25.12
2022-09-07T17:49:35.686Z,25.08
2022-09-07T17:52:03.912Z,25.08
2022-09-07T17:54:32.823Z,25.05
2022-09-07T17:57:00.799Z,25.04
2022-09-07T18:02:17.371Z,24.98
2022-09-07T18:04:45.068Z,24.97
2022-09-07T18:07:12.929Z,24.95
2022-09-07T18:09:40.583Z,24.94
2022-09-07T18:12:08.511Z,24.91
2022-09-07T18:14:36.201Z,24.90
2022-09-07T18:17:06.010Z,24.88
2022-09-07T18:19:36.410Z,24.89
2022-09-07T18:22:04.121Z,24.85
2022-09-07T18:24:31.827Z,24.83
2022-09-07T18:26:59.604Z,24.81
2022-09-07T18:29:31.116Z,24.76
2022-09-07T18:32:01.449Z,24.76
2022-09-07T18:34:30.658Z,24.72
2022-09-07T18:36:59.986Z,24.73
2022-09-07T18:39:27.974Z,24.70
2022-09-07T18:41:56.116Z,24.65
2022-09-07T18:47:21.455Z,24.65
2022-09-07T18:49:51.822Z,24.66
2022-09-07T18:55:10.406Z,24.63
2022-09-07T18:57:38.631Z,24.62
2022-09-07T19:00:08.923Z,24.56
2022-09-07T19:02:36.999Z,24.54
2022-09-07T19:07:54.341Z,24.52
2022-09-07T19:10:21.959Z,24.47
2022-09-07T19:12:49.516Z,24.45
2022-09-07T19:15:17.141Z,24.41
2022-09-07T19:17:44.867Z,24.37
2022-09-07T19:20:12.619Z,24.37
2022-09-07T19:22:40.254Z,24.37
2022-09-07T19:25:10.231Z,24.32
2022-09-07T19:27:37.950Z,24.23
2022-09-07T19:30:06.108Z,24.14
2022-09-07T19:32:33.886Z,24.05
2022-09-07T19:35:01.562Z,23.98
2022-09-07T19:37:31.868Z,23.92
2022-09-07T19:39:59.735Z,23.95
2022-09-07T19:42:29.581Z,23.95
2022-09-07T19:44:57.185Z,23.85
2022-09-07T19:47:24.897Z,23.72
2022-09-07T19:49:52.737Z,23.63
2022-09-07T19:52:20.581Z,23.53
2022-09-07T19:54:48.253Z,23.51
2022-09-07T19:57:15.858Z,23.50
2022-09-07T19:59:45.594Z,23.55
2022-09-07T20:02:13.379Z,23.70
2022-09-07T20:04:40.967Z,23.75
2022-09-07T20:07:08.611Z,23.80
2022-09-07T20:09:36.850Z,23.83
2022-09-07T20:12:06.642Z,23.85
2022-09-07T20:14:34.357Z,23.89
2022-09-07T20:17:03.650Z,23.89
2022-09-07T20:19:31.244Z,23.90
2022-09-07T20:21:59.026Z,23.91
2022-09-07T20:24:27.078Z,23.92
2022-09-07T20:26:54.681Z,23.90
2022-09-07T20:29:29.571Z,23.91
2022-09-07T20:31:58.323Z,23.86
2022-09-07T20:34:28.156Z,23.81
2022-09-07T20:36:56.699Z,23.77
2022-09-07T20:39:24.333Z,23.71
2022-09-07T20:41:51.993Z,23.56
2022-09-07T20:44:19.603Z,23.41
2022-09-07T20:46:47.495Z,23.28
2022-09-07T20:49:15.188Z,23.27
2022-09-07T20:51:44.105Z,23.36
2022-09-07T20:54:11.740Z,23.41
2022-09-07T20:56:39.332Z,23.44
2022-09-07T20:59:06.926Z,23.41
2022-09-07T21:01:35.098Z,23.42
2022-09-07T21:04:03.914Z,23.39
2022-09-07T21:06:32.891Z,23.36
2022-09-07T21:09:02.644Z,23.34
2022-09-07T21:11:33.056Z,23.24
2022-09-07T21:14:02.319Z,23.21
2022-09-07T21:16:30.910Z,23.16
2022-09-07T21:19:00.158Z,23.19
2022-09-07T21:21:29.463Z,23.16
2022-09-07T21:23:59.187Z,23.23
2022-09-07T21:26:29.170Z,23.25
2022-09-07T21:28:57.954Z,23.25
2022-09-07T21:31:25.771Z,23.17
2022-09-07T21:33:55.601Z,23.15
2022-09-07T21:36:23.687Z,23.11
2022-09-07T21:38:51.885Z,23.10
2022-09-07T21:41:20.878Z,23.12
2022-09-07T21:43:49.952Z,23.15
2022-09-07T21:46:19.652Z,23.21
2022-09-07T21:48:47.615Z,23.17
2022-09-07T21:51:16.177Z,23.13
2022-09-07T21:53:44.452Z,23.09
2022-09-07T21:56:14.489Z,23.07
2022-09-07T21:58:43.640Z,23.04
2022-09-07T22:01:16.754Z,23.08
2022-09-07T22:03:45.375Z,23.02
2022-09-07T22:06:13.374Z,23.07
2022-09-07T22:08:42.110Z,23.05
2022-09-07T22:11:11.916Z,23.04
2022-09-07T22:13:40.383Z,23.01
2022-09-07T22:16:09.055Z,23.01
2022-09-07T22:18:40.170Z,22.99
2022-09-07T22:21:09.511Z,23.00
2022-09-07T22:23:40.164Z,22.99
2022-09-07T22:26:08.765Z,23.06
2022-09-07T22:28:37.024Z,23.12
2022-09-07T22:31:12.837Z,23.09
2022-09-07T22:33:42.640Z,23.04
2022-09-07T22:36:12.518Z,23.01
2022-09-07T22:38:40.203Z,22.92
2022-09-07T22:41:09.246Z,22.86
2022-09-07T22:43:37.268Z,22.87
2022-09-07T22:46:05.630Z,22.85
2022-09-07T22:48:33.390Z,22.81
2022-09-07T22:51:03.461Z,22.86
2022-09-07T22:53:34.511Z,22.94
2022-09-07T22:56:06.990Z,22.95
2022-09-07T22:58:35.051Z,22.93
2022-09-07T23:01:02.649Z,22.94
2022-09-07T23:03:31.588Z,22.82
2022-09-07T23:06:00.542Z,22.78
2022-09-07T23:08:30.241Z,22.79
2022-09-07T23:11:04.952Z,22.69
2022-09-07T23:13:33.016Z,22.61
2022-09-07T23:16:05.606Z,22.59
2022-09-07T23:18:34.108Z,22.58
2022-09-07T23:21:02.221Z,22.49
2022-09-07T23:23:31.350Z,22.47
2022-09-07T23:26:02.320Z,22.39
2022-09-07T23:28:30.420Z,22.42
2022-09-07T23:30:58.433Z,22.45
2022-09-07T23:33:27.173Z,22.54
2022-09-07T23:35:59.959Z,22.67
2022-09-07T23:38:28.243Z,22.56
2022-09-07T23:40:58.467Z,22.43
2022-09-07T23:43:27.818Z,22.36
2022-09-07T23:45:55.552Z,22.27
2022-09-07T23:48:23.813Z,22.20
2022-09-07T23:50:53.032Z,22.18
2022-09-07T23:53:22.017Z,22.16
2022-09-07T23:55:51.518Z,22.10
2022-09-07T23:58:22.277Z,22.09
